createdAt,value
2022-10-22T00:00:52.905Z,100.00
2022-10-22T00:03:27.714Z,100.00
2022-10-22T00:05:59.747Z,100.00
2022-10-22T00:08:31.716Z,100.00
2022-10-22T00:11:16.250Z,100.00
2022-10-22T00:13:48.961Z,100.00
2022-10-22T00:16:20.871Z,100.00
2022-10-22T00:18:52.775Z,100.00
2022-10-22T00:21:25.764Z,100.00
2022-10-22T00:23:57.676Z,100.00
2022-10-22T00:26:29.628Z,100.00
2022-10-22T00:29:01.547Z,100.00
2022-10-22T00:31:33.735Z,100.00
2022-10-22T00:34:05.864Z,100.00
2022-10-22T00:36:37.901Z,100.00
2022-10-22T00:39:10.195Z,100.00
2022-10-22T00:41:44.218Z,100.00
2022-10-22T00:45:00.151Z,100.00
2022-10-22T00:47:45.102Z,100.00
2022-10-22T00:50:36.897Z,100.00
2022-10-22T00:53:14.258Z,100.00
2022-10-22T00:55:49.625Z,100.00
2022-10-22T00:58:26.723Z,100.00
2022-10-22T01:00:59.320Z,100.00
2022-10-22T01:03:32.561Z,100.00
2022-10-22T01:06:06.164Z,100.00
2022-10-22T01:08:53.298Z,100.00
2022-10-22T01:11:46.971Z,100.00
2022-10-22T01:14:24.983Z,100.00
2022-10-22T01:17:29.460Z,100.00
2022-10-22T01:20:48.275Z,100.00
2022-10-22T01:23:47.331Z,100.00
2022-10-22T01:26:51.055Z,100.00
2022-10-22T01:29:34.639Z,100.00
2022-10-22T01:32:16.807Z,100.00
2022-10-22T01:35:02.309Z,100.00
2022-10-22T01:37:40.720Z,100.00
2022-10-22T01:40:16.550Z,100.00
2022-10-22T01:43:05.091Z,100.00
2022-10-22T01:45:43.284Z,100.00
2022-10-22T01:48:39.947Z,100.00
2022-10-22T01:52:04.759Z,100.00
2022-10-22T01:54:46.976Z,100.00
2022-10-22T01:57:33.712Z,100.00
2022-10-22T02:00:10.145Z,100.00
2022-10-22T02:03:24.023Z,100.00
2022-10-22T02:06:03.048Z,100.00
2022-10-22T02:08:37.174Z,100.00
2022-10-22T02:11:12.390Z,100.00
2022-10-22T02:13:49.728Z,100.00
2022-10-22T02:16:28.962Z,100.00
2022-10-22T02:19:06.384Z,100.00
2022-10-22T02:21:38.505Z,100.00
2022-10-22T02:24:10.532Z,100.00
2022-10-22T02:27:01.366Z,100.00
2022-10-22T02:29:49.648Z,100.00
2022-10-22T02:32:27.107Z,100.00
2022-10-22T02:35:00.790Z,100.00
2022-10-22T02:37:33.172Z,100.00
2022-10-22T02:40:06.130Z,100.00
2022-10-22T02:42:40.210Z,100.00
2022-10-22T02:45:12.218Z,100.00
2022-10-22T02:47:44.433Z,100.00
2022-10-22T02:50:17.225Z,100.00
2022-10-22T02:52:49.191Z,100.00
2022-10-22T02:55:21.213Z,100.00
2022-10-22T02:57:53.138Z,100.00
2022-10-22T03:00:25.047Z,100.00
2022-10-22T03:02:56.950Z,100.00
2022-10-22T03:05:28.838Z,100.00
2022-10-22T03:08:00.776Z,100.00
2022-10-22T03:10:32.860Z,100.00
2022-10-22T03:13:04.931Z,100.00
2022-10-22T03:15:36.850Z,100.00
2022-10-22T03:18:09.157Z,100.00
2022-10-22T03:20:41.052Z,100.00
2022-10-22T03:23:18.265Z,100.00
2022-10-22T03:25:50.416Z,100.00
2022-10-22T03:28:22.396Z,100.00
2022-10-22T03:30:54.497Z,100.00
2022-10-22T03:33:26.410Z,100.00
2022-10-22T03:35:59.321Z,100.00
2022-10-22T03:38:31.384Z,100.00
2022-10-22T03:41:03.527Z,100.00
2022-10-22T03:43:38.085Z,100.00
2022-10-22T03:46:10.006Z,100.00
2022-10-22T03:48:41.992Z,100.00
2022-10-22T03:51:14.213Z,100.00
2022-10-22T03:53:46.437Z,100.00
2022-10-22T03:56:18.368Z,100.00
2022-10-22T03:58:50.360Z,100.00
2022-10-22T04:01:22.373Z,100.00
2022-10-22T04:03:55.064Z,100.00
2022-10-22T04:06:27.139Z,100.00
2022-10-22T04:08:59.928Z,100.00
2022-10-22T04:11:31.979Z,100.00
2022-10-22T04:14:03.956Z,100.00
2022-10-22T04:16:35.939Z,100.00
2022-10-22T04:19:08.517Z,100.00
2022-10-22T04:21:40.493Z,100.00
2022-10-22T04:24:12.423Z,100.00
2022-10-22T04:26:44.418Z,100.00
2022-10-22T04:29:16.589Z,100.00
2022-10-22T04:31:48.565Z,100.00
2022-10-22T04:34:20.820Z,100.00
2022-10-22T04:36:52.844Z,100.00
2022-10-22T04:39:24.768Z,100.00
2022-10-22T04:41:56.982Z,100.00
2022-10-22T04:44:28.916Z,100.00
2022-10-22T04:47:00.908Z,100.00
2022-10-22T04:49:32.830Z,100.00
2022-10-22T04:52:04.862Z,100.00
2022-10-22T04:54:36.944Z,100.00
2022-10-22T04:57:08.844Z,100.00
2022-10-22T04:59:40.903Z,100.00
2022-10-22T05:02:12.825Z,100.00
2022-10-22T05:04:45.006Z,100.00
2022-10-22T05:07:17.041Z,100.00
2022-10-22T05:09:49.115Z,100.00
2022-10-22T05:12:21.075Z,100.00
2022-10-22T05:14:53.075Z,100.00
2022-10-22T05:17:25.056Z,100.00
2022-10-22T05:19:56.984Z,100.00
2022-10-22T05:22:28.947Z,100.00
2022-10-22T05:25:01.160Z,100.00
2022-10-22T05:27:33.070Z,100.00
2022-10-22T05:30:06.229Z,100.00
2022-10-22T05:32:38.293Z,100.00
2022-10-22T05:35:10.258Z,100.00
2022-10-22T05:37:42.481Z,100.00
2022-10-22T05:40:26.556Z,100.00
2022-10-22T05:43:02.131Z,100.00
2022-10-22T05:45:38.628Z,100.00
2022-10-22T05:48:10.652Z,100.00
2022-10-22T05:50:42.585Z,100.00
2022-10-22T05:53:14.475Z,100.00
2022-10-22T05:55:46.449Z,100.00
2022-10-22T05:58:18.347Z,100.00
2022-10-22T06:00:50.290Z,100.00
2022-10-22T06:03:22.216Z,100.00
2022-10-22T06:05:54.535Z,100.00
2022-10-22T06:08:26.686Z,100.00
2022-10-22T06:10:58.755Z,100.00
2022-10-22T06:13:32.804Z,100.00
2022-10-22T06:16:04.853Z,100.00
2022-10-22T06:18:36.811Z,100.00
2022-10-22T06:21:12.316Z,100.00
2022-10-22T06:23:44.374Z,100.00
2022-10-22T06:26:17.914Z,100.00
2022-10-22T06:28:49.816Z,100.00
2022-10-22T06:31:22.070Z,100.00
2022-10-22T06:33:54.165Z,100.00
2022-10-22T06:36:26.160Z,100.00
2022-10-22T06:38:58.366Z,100.00
2022-10-22T06:41:30.415Z,100.00
2022-10-22T06:44:02.361Z,100.00
2022-10-22T06:46:34.399Z,100.00
2022-10-22T06:49:06.373Z,100.00
2022-10-22T06:51:38.323Z,100.00
2022-10-22T06:54:10.932Z,100.00
2022-10-22T06:56:42.911Z,100.00
2022-10-22T06:59:14.874Z,100.00
2022-10-22T07:01:47.003Z,100.00
2022-10-22T07:04:18.991Z,100.00
2022-10-22T07:06:50.997Z,100.00
2022-10-22T07:09:23.107Z,100.00
2022-10-22T07:11:55.121Z,100.00
2022-10-22T07:14:27.048Z,100.00
2022-10-22T07:16:59.156Z,100.00
2022-10-22T07:19:31.660Z,100.00
2022-10-22T07:22:03.757Z,100.00
2022-10-22T07:24:35.703Z,100.00
2022-10-22T07:27:10.877Z,100.00
2022-10-22T07:29:43.764Z,100.00
2022-10-22T07:32:15.762Z,100.00
2022-10-22T07:34:48.092Z,100.00
2022-10-22T07:37:22.197Z,100.00
2022-10-22T07:39:54.232Z,100.00
2022-10-22T07:42:26.224Z,100.00
2022-10-22T07:44:58.303Z,100.00
2022-10-22T07:47:30.535Z,100.00
2022-10-22T07:50:02.426Z,100.00
2022-10-22T07:52:34.598Z,100.00
2022-10-22T07:55:07.005Z,100.00
2022-10-22T07:57:39.735Z,100.00
2022-10-22T08:00:12.571Z,100.00
2022-10-22T08:02:44.620Z,100.00
2022-10-22T08:05:16.716Z,100.00
2022-10-22T08:07:48.765Z,100.00
2022-10-22T08:10:20.780Z,100.00
2022-10-22T08:12:52.755Z,100.00
2022-10-22T08:15:25.722Z,100.00
2022-10-22T08:17:57.739Z,100.00
2022-10-22T08:20:29.652Z,100.00
2022-10-22T08:23:01.697Z,100.00
2022-10-22T08:25:33.682Z,100.00
2022-10-22T08:28:05.704Z,100.00
2022-10-22T08:30:38.873Z,100.00
2022-10-22T08:33:10.780Z,100.00
2022-10-22T08:35:42.707Z,100.00
2022-10-22T08:38:14.669Z,100.00
2022-10-22T08:40:54.840Z,100.00
2022-10-22T08:43:48.360Z,100.00
2022-10-22T08:46:38.248Z,100.00
2022-10-22T08:49:28.480Z,100.00
2022-10-22T08:52:00.977Z,100.00
2022-10-22T08:54:54.136Z,100.00
2022-10-22T08:57:41.452Z,100.00
2022-10-22T09:00:22.798Z,100.00
2022-10-22T09:03:22.365Z,100.00
2022-10-22T09:06:16.256Z,100.00
2022-10-22T09:08:48.884Z,100.00
2022-10-22T09:11:40.447Z,100.00
2022-10-22T09:14:24.158Z,100.00
2022-10-22T09:17:21.610Z,98.71
2022-10-22T09:20:36.233Z,98.55
2022-10-22T09:23:34.055Z,94.68
2022-10-22T09:26:26.799Z,96.02
2022-10-22T09:29:02.747Z,94.52
2022-10-22T09:31:34.982Z,94.19
2022-10-22T09:34:07.998Z,94.22
2022-10-22T09:36:39.943Z,94.06
2022-10-22T09:39:44.839Z,94.41
2022-10-22T09:42:20.749Z,94.64
2022-10-22T09:44:59.448Z,94.60
2022-10-22T09:48:01.012Z,94.74
2022-10-22T09:50:47.894Z,93.88
2022-10-22T09:53:29.698Z,92.13
2022-10-22T09:56:08.494Z,92.20
2022-10-22T09:58:46.806Z,91.42
2022-10-22T10:01:27.003Z,90.86
2022-10-22T10:04:09.575Z,89.61
2022-10-22T10:06:44.795Z,90.09
2022-10-22T10:09:23.381Z,87.62
2022-10-22T10:12:22.885Z,84.35
2022-10-22T10:15:25.556Z,75.80
2022-10-22T10:18:48.660Z,67.43
2022-10-22T10:21:54.491Z,68.19
2022-10-22T10:24:32.237Z,71.40
2022-10-22T10:27:31.424Z,74.27
2022-10-22T10:30:26.239Z,76.18
2022-10-22T10:33:52.887Z,78.31
2022-10-22T10:37:19.613Z,77.66
2022-10-22T10:40:49.655Z,78.59
2022-10-22T10:43:38.428Z,78.65
2022-10-22T10:47:04.576Z,79.85
2022-10-22T10:49:37.152Z,80.58
2022-10-22T10:52:59.592Z,80.28
2022-10-22T10:55:42.600Z,80.33
2022-10-22T10:58:52.969Z,79.19
2022-10-22T11:01:30.139Z,78.35
2022-10-22T11:04:25.897Z,77.92
2022-10-22T11:07:11.385Z,76.85
2022-10-22T11:10:20.185Z,76.97
2022-10-22T11:12:57.909Z,76.72
2022-10-22T11:15:36.102Z,76.01
2022-10-22T11:18:33.385Z,75.60
2022-10-22T11:21:18.731Z,74.71
2022-10-22T11:24:16.669Z,75.36
2022-10-22T11:27:25.792Z,75.10
2022-10-22T11:30:13.277Z,76.19
2022-10-22T11:32:50.894Z,75.65
2022-10-22T11:35:27.027Z,76.90
2022-10-22T11:37:59.827Z,76.80
2022-10-22T11:40:59.746Z,76.63
2022-10-22T11:43:52.870Z,77.43
2022-10-22T11:46:35.446Z,75.17
2022-10-22T11:49:13.172Z,76.20
2022-10-22T11:51:47.209Z,75.99
2022-10-22T11:54:34.266Z,76.62
2022-10-22T11:57:15.256Z,77.46
2022-10-22T11:59:47.063Z,75.74
2022-10-22T12:02:40.516Z,76.07
2022-10-22T12:05:22.856Z,75.73
2022-10-22T12:08:03.884Z,76.03
2022-10-22T12:10:59.430Z,75.99
2022-10-22T12:14:12.120Z,75.77
2022-10-22T12:17:07.842Z,76.24
2022-10-22T12:19:46.895Z,75.53
2022-10-22T12:22:27.948Z,73.27
2022-10-22T12:25:13.049Z,71.37
2022-10-22T12:27:51.952Z,70.71
2022-10-22T12:30:28.040Z,69.27
2022-10-22T12:33:03.095Z,69.17
2022-10-22T12:35:44.126Z,70.08
2022-10-22T12:38:21.694Z,73.22
2022-10-22T12:40:57.317Z,72.74
2022-10-22T12:43:31.052Z,73.45
2022-10-22T12:46:03.188Z,72.71
2022-10-22T12:48:41.018Z,72.30
2022-10-22T12:51:20.081Z,73.26
2022-10-22T12:54:00.531Z,72.63
2022-10-22T12:56:34.682Z,73.60
2022-10-22T12:59:21.305Z,74.17
2022-10-22T13:01:54.533Z,74.89
2022-10-22T13:04:26.854Z,74.96
2022-10-22T13:07:12.490Z,74.62
2022-10-22T13:09:48.808Z,74.67
2022-10-22T13:12:26.701Z,76.32
2022-10-22T13:15:21.169Z,75.18
2022-10-22T13:18:06.379Z,76.39
2022-10-22T13:21:03.645Z,76.01
2022-10-22T13:23:35.602Z,76.07
2022-10-22T13:26:17.209Z,76.69
2022-10-22T13:28:56.205Z,76.92
2022-10-22T13:31:37.897Z,78.79
2022-10-22T13:34:18.144Z,79.41
2022-10-22T13:36:50.554Z,79.70
2022-10-22T13:39:24.978Z,78.85
2022-10-22T13:41:56.900Z,79.69
2022-10-22T13:44:28.833Z,79.56
2022-10-22T13:47:00.738Z,80.58
2022-10-22T13:49:32.684Z,81.09
2022-10-22T13:52:04.744Z,81.48
2022-10-22T13:54:38.020Z,82.76
2022-10-22T13:57:11.089Z,82.70
2022-10-22T13:59:43.070Z,82.08
2022-10-22T14:02:16.544Z,81.04
2022-10-22T14:04:48.490Z,80.80
2022-10-22T14:07:21.212Z,80.29
2022-10-22T14:09:53.156Z,80.35
2022-10-22T14:12:25.296Z,80.51
2022-10-22T14:17:56.497Z,83.25
2022-10-22T14:20:31.125Z,85.56
2022-10-22T14:23:19.391Z,88.24
2022-10-22T14:25:51.451Z,89.46
2022-10-22T14:28:23.513Z,90.29
2022-10-22T14:30:56.082Z,90.16
2022-10-22T14:33:32.573Z,90.36
2022-10-22T14:36:04.650Z,91.01
2022-10-22T14:38:36.592Z,90.40
2022-10-22T14:41:22.248Z,89.81
2022-10-22T14:43:55.509Z,89.79
2022-10-22T14:46:27.493Z,89.87
2022-10-22T14:48:59.391Z,89.90
2022-10-22T14:51:31.311Z,89.75
2022-10-22T14:54:03.246Z,89.30
2022-10-22T14:59:27.580Z,89.24
2022-10-22T15:01:59.529Z,89.61
2022-10-22T15:04:31.460Z,89.95
2022-10-22T15:07:03.455Z,89.50
2022-10-22T15:09:35.432Z,90.37
2022-10-22T15:12:08.466Z,90.17
2022-10-22T15:14:40.373Z,90.49
2022-10-22T15:17:12.356Z,91.01
2022-10-22T15:19:44.834Z,91.23
2022-10-22T15:22:17.467Z,90.91
2022-10-22T15:24:49.752Z,91.81
2022-10-22T15:27:21.690Z,91.88
2022-10-22T15:29:53.694Z,92.44
2022-10-22T15:32:28.498Z,93.14
2022-10-22T15:35:01.682Z,94.03
2022-10-22T15:37:33.880Z,93.39
2022-10-22T15:40:08.659Z,92.77
2022-10-22T15:42:40.917Z,92.81
2022-10-22T15:45:13.000Z,92.72
2022-10-22T15:47:49.177Z,92.13
2022-10-22T15:50:21.464Z,91.67
2022-10-22T15:52:54.652Z,91.32
2022-10-22T15:55:26.725Z,91.22
2022-10-22T15:58:01.808Z,91.63
2022-10-22T16:00:35.552Z,91.86
2022-10-22T16:03:08.268Z,91.72
2022-10-22T16:05:40.354Z,91.42
2022-10-22T16:08:12.310Z,91.86
2022-10-22T16:10:48.636Z,91.78
2022-10-22T16:13:23.863Z,91.83
2022-10-22T16:15:56.163Z,93.50
2022-10-22T16:18:28.097Z,93.05
2022-10-22T16:21:00.055Z,92.72
2022-10-22T16:23:32.121Z,92.61
2022-10-22T16:26:04.056Z,93.21
2022-10-22T16:28:36.135Z,93.20
2022-10-22T16:31:12.046Z,93.45
2022-10-22T16:33:46.515Z,94.00
2022-10-22T16:36:22.317Z,95.10
2022-10-22T16:38:54.352Z,95.47
2022-10-22T16:41:33.805Z,96.84
2022-10-22T16:44:08.903Z,97.04
2022-10-22T16:46:40.916Z,96.81
2022-10-22T16:49:12.884Z,96.54
2022-10-22T16:51:44.998Z,97.11
2022-10-22T16:54:17.065Z,97.25
2022-10-22T16:56:49.080Z,97.39
2022-10-22T16:59:21.009Z,97.91
2022-10-22T17:01:54.668Z,97.62
2022-10-22T17:04:26.684Z,97.41
2022-10-22T17:06:58.621Z,97.99
2022-10-22T17:09:30.622Z,98.49
2022-10-22T17:12:02.565Z,98.82
2022-10-22T17:14:34.673Z,98.79
2022-10-22T17:17:06.616Z,98.82
2022-10-22T17:19:39.041Z,99.14
2022-10-22T17:22:14.808Z,99.47
2022-10-22T17:25:19.830Z,99.38
2022-10-22T17:27:54.903Z,99.09
2022-10-22T17:30:28.425Z,99.46
2022-10-22T17:33:00.443Z,99.50
2022-10-22T17:35:32.462Z,99.59
2022-10-22T17:38:04.364Z,99.65
2022-10-22T17:40:37.958Z,99.85
2022-10-22T17:43:09.887Z,100.00
2022-10-22T17:45:41.880Z,100.00
2022-10-22T17:48:13.964Z,100.00
2022-10-22T17:50:49.653Z,100.00
2022-10-22T17:53:23.445Z,100.00
2022-10-22T17:58:49.329Z,100.00
2022-10-22T18:01:27.997Z,100.00
2022-10-22T18:04:04.330Z,100.00
2022-10-22T18:06:36.974Z,100.00
2022-10-22T18:09:13.283Z,100.00
2022-10-22T18:11:53.352Z,100.00
2022-10-22T18:14:25.545Z,100.00
2022-10-22T18:16:57.445Z,100.00
2022-10-22T18:19:30.575Z,100.00
2022-10-22T18:22:02.616Z,100.00
2022-10-22T18:24:36.901Z,100.00
2022-10-22T18:27:09.007Z,100.00
2022-10-22T18:29:41.134Z,100.00
2022-10-22T18:32:13.436Z,100.00
2022-10-22T18:34:45.412Z,100.00
2022-10-22T18:37:17.505Z,100.00
2022-10-22T18:39:50.510Z,100.00
2022-10-22T18:42:22.915Z,100.00
2022-10-22T18:44:55.311Z,100.00
2022-10-22T18:47:27.228Z,100.00
2022-10-22T18:49:59.402Z,100.00
2022-10-22T18:52:31.401Z,100.00
2022-10-22T18:55:04.301Z,100.00
2022-10-22T18:57:36.245Z,100.00
2022-10-22T19:00:09.166Z,100.00
2022-10-22T19:02:41.370Z,100.00
2022-10-22T19:05:16.464Z,100.00
2022-10-22T19:07:50.612Z,100.00
2022-10-22T19:10:22.528Z,100.00
2022-10-22T19:12:54.552Z,100.00
2022-10-22T19:15:39.547Z,100.00
2022-10-22T19:18:13.417Z,100.00
2022-10-22T19:20:48.290Z,100.00
2022-10-22T19:23:20.881Z,100.00
2022-10-22T19:26:05.456Z,100.00
2022-10-22T19:28:38.728Z,100.00
2022-10-22T19:31:17.178Z,100.00
2022-10-22T19:33:50.737Z,100.00
2022-10-22T19:36:25.297Z,100.00
2022-10-22T19:38:57.957Z,100.00
2022-10-22T19:41:32.099Z,100.00
2022-10-22T19:44:04.413Z,100.00
2022-10-22T19:46:36.428Z,100.00
2022-10-22T19:49:09.512Z,100.00
2022-10-22T19:51:41.701Z,100.00
2022-10-22T19:54:21.197Z,100.00
2022-10-22T19:56:53.846Z,100.00
2022-10-22T19:59:29.865Z,100.00
2022-10-22T20:02:04.098Z,100.00
2022-10-22T20:04:36.526Z,100.00
2022-10-22T20:07:08.884Z,100.00
2022-10-22T20:09:40.868Z,100.00
2022-10-22T20:12:12.834Z,100.00
2022-10-22T20:14:44.816Z,100.00
2022-10-22T20:17:16.723Z,100.00
2022-10-22T20:19:48.672Z,100.00
2022-10-22T20:22:20.617Z,100.00
2022-10-22T20:24:52.640Z,100.00
2022-10-22T20:27:24.642Z,100.00
2022-10-22T20:29:56.593Z,100.00
2022-10-22T20:32:28.514Z,100.00
2022-10-22T20:35:00.457Z,100.00
2022-10-22T20:37:33.365Z,100.00
2022-10-22T20:40:07.819Z,100.00
2022-10-22T20:42:40.180Z,100.00
2022-10-22T20:45:12.466Z,100.00
2022-10-22T20:47:51.338Z,100.00
2022-10-22T20:50:29.711Z,100.00
2022-10-22T20:53:01.649Z,100.00
2022-10-22T20:55:33.624Z,100.00
2022-10-22T20:58:05.576Z,100.00
2022-10-22T21:00:39.440Z,100.00
2022-10-22T21:03:12.803Z,100.00
2022-10-22T21:05:44.803Z,100.00
2022-10-22T21:08:17.810Z,100.00
2022-10-22T21:10:49.860Z,100.00
2022-10-22T21:13:21.757Z,100.00
2022-10-22T21:15:53.721Z,100.00
2022-10-22T21:18:25.654Z,100.00
2022-10-22T21:20:57.596Z,100.00
2022-10-22T21:23:29.485Z,100.00
2022-10-22T21:26:01.918Z,100.00
2022-10-22T21:28:36.223Z,100.00
2022-10-22T21:31:10.320Z,100.00
2022-10-22T21:33:42.257Z,100.00
2022-10-22T21:36:14.660Z,100.00
2022-10-22T21:38:48.234Z,100.00
2022-10-22T21:41:22.826Z,100.00
2022-10-22T21:43:54.736Z,100.00
2022-10-22T21:46:28.299Z,100.00
2022-10-22T21:49:02.989Z,100.00
2022-10-22T21:51:38.135Z,100.00
2022-10-22T21:54:12.327Z,100.00
2022-10-22T21:56:44.276Z,100.00
2022-10-22T21:59:16.261Z,100.00
2022-10-22T22:01:48.287Z,100.00
2022-10-22T22:04:20.234Z,100.00
2022-10-22T22:06:52.498Z,100.00
2022-10-22T22:09:24.400Z,100.00
2022-10-22T22:11:56.680Z,100.00
2022-10-22T22:14:28.630Z,100.00
2022-10-22T22:17:00.548Z,100.00
2022-10-22T22:19:32.441Z,100.00
2022-10-22T22:22:04.647Z,100.00
2022-10-22T22:24:38.295Z,100.00
2022-10-22T22:27:10.517Z,100.00
2022-10-22T22:29:42.530Z,100.00
2022-10-22T22:32:15.909Z,100.00
2022-10-22T22:34:47.847Z,100.00
2022-10-22T22:37:19.761Z,100.00
2022-10-22T22:39:51.646Z,100.00
2022-10-22T22:42:23.604Z,100.00
2022-10-22T22:44:55.522Z,100.00
2022-10-22T22:47:27.463Z,100.00
2022-10-22T22:49:59.412Z,100.00
2022-10-22T22:52:31.299Z,100.00
2022-10-22T22:55:03.330Z,100.00
2022-10-22T22:57:36.019Z,100.00
2022-10-22T23:00:09.007Z,100.00
2022-10-22T23:02:41.267Z,100.00
2022-10-22T23:05:13.393Z,100.00
2022-10-22T23:07:45.316Z,100.00
2022-10-22T23:10:17.324Z,100.00
2022-10-22T23:12:50.028Z,100.00
2022-10-22T23:15:21.985Z,100.00
2022-10-22T23:17:53.958Z,100.00
2022-10-22T23:20:25.852Z,100.00
2022-10-22T23:22:57.809Z,100.00
2022-10-22T23:25:30.593Z,100.00
2022-10-22T23:28:02.567Z,100.00
2022-10-22T23:30:34.476Z,100.00
2022-10-22T23:33:06.385Z,100.00
2022-10-22T23:35:42.129Z,100.00
2022-10-22T23:38:14.061Z,100.00
2022-10-22T23:40:46.052Z,100.00
2022-10-22T23:43:17.981Z,100.00
2022-10-22T23:45:49.942Z,100.00
2022-10-22T23:48:22.366Z,100.00
2022-10-22T23:50:54.294Z,100.00
2022-10-22T23:53:26.294Z,100.00
2022-10-22T23:55:58.278Z,100.00
2022-10-22T23:58:30.169Z,100.00
